Time;durP1;ratioP1;P1;durP2;ratioP2;P2;SDS_P1;SDS_P2;PMS_P1;PMS_P2;Temp;Humidity;BMP_temperature;BMP_pressure;BME280_temperature;BME280_humidity;BME280_pressure;Samples;Min_cycle;Max_cycle;Signal;HPM_P1;HPM_P2
2023/11/09 00:00:12;;;;;;;25.23;11.10;;;5.20;99.90;;;;;;5018647;28;20046;-77
2023/11/09 00:02:41;;;;;;;28.67;11.68;;;5.20;99.90;;;;;;5041576;28;20065;-76
2023/11/09 00:05:11;;;;;;;28.95;12.57;;;5.10;99.90;;;;;;5025023;28;20046;-75
2023/11/09 00:07:41;;;;;;;32.83;14.18;;;5.10;99.90;;;;;;5016982;28;20052;-75
2023/11/09 00:10:10;;;;;;;30.10;13.30;;;5.10;99.90;;;;;;5003305;28;22291;-75
2023/11/09 00:12:41;;;;;;;30.75;12.35;;;5.10;99.90;;;;;;5018940;28;20054;-75
2023/11/09 00:15:11;;;;;;;28.35;12.63;;;5.30;99.90;;;;;;5014261;28;20176;-75
2023/11/09 00:17:39;;;;;;;27.48;11.35;;;5.50;99.90;;;;;;5007031;28;20068;-75
2023/11/09 00:20:09;;;;;;;21.67;9.95;;;5.60;99.90;;;;;;4999921;28;20211;-75
2023/11/09 00:22:40;;;;;;;25.08;9.95;;;5.60;99.90;;;;;;5004263;28;20743;-75
2023/11/09 00:25:09;;;;;;;24.15;9.77;;;4.10;99.90;;;;;;5015392;28;20120;-76
2023/11/09 00:27:39;;;;;;;22.27;8.80;;;5.00;99.90;;;;;;5005095;28;20058;-75
2023/11/09 00:30:08;;;;;;;22.02;10.32;;;5.00;99.90;;;;;;5005832;28;20050;-75
2023/11/09 00:32:37;;;;;;;16.65;9.13;;;5.20;99.90;;;;;;5005418;28;20096;-75
2023/11/09 00:35:07;;;;;;;23.75;9.13;;;4.90;99.90;;;;;;5023793;28;20037;-76
2023/11/09 00:37:38;;;;;;;19.52;8.88;;;5.00;99.90;;;;;;5011545;28;20598;-76
2023/11/09 00:40:11;;;;;;;20.63;8.93;;;4.90;99.90;;;;;;5004933;28;22817;-76
2023/11/09 00:42:40;;;;;;;15.82;7.25;;;4.80;99.90;;;;;;5002069;28;20084;-76
2023/11/09 00:45:09;;;;;;;15.95;8.02;;;4.90;99.90;;;;;;4986439;28;20053;-76
2023/11/09 00:47:37;;;;;;;20.63;7.43;;;4.90;99.90;;;;;;4989846;28;20053;-77
2023/11/09 00:50:07;;;;;;;17.45;7.85;;;4.90;99.90;;;;;;4994222;28;20106;-76
2023/11/09 00:52:35;;;;;;;16.13;7.63;;;4.80;99.90;;;;;;4983712;28;20076;-77
2023/11/09 00:55:04;;;;;;;15.65;7.63;;;4.80;99.90;;;;;;5003580;28;20760;-76
2023/11/09 00:57:34;;;;;;;14.35;7.35;;;4.70;99.90;;;;;;5017776;28;20823;-76
2023/11/09 01:00:03;;;;;;;16.95;6.80;;;4.80;99.90;;;;;;5003219;28;20938;-76
2023/11/09 01:02:37;;;;;;;15.57;7.18;;;4.70;99.90;;;;;;4993005;28;20045;-76
2023/11/09 01:05:06;;;;;;;14.00;6.50;;;4.70;99.90;;;;;;5002796;28;20053;-76
2023/11/09 01:07:36;;;;;;;16.20;7.40;;;4.70;99.90;;;;;;5001801;28;20286;-76
2023/11/09 01:10:05;;;;;;;14.57;7.13;;;4.70;99.90;;;;;;5003670;28;20050;-76
2023/11/09 01:12:37;;;;;;;15.38;6.65;;;4.60;99.90;;;;;;4988365;28;20115;-76
2023/11/09 01:15:07;;;;;;;14.18;7.53;;;4.70;99.90;;;;;;4978934;28;20741;-76
2023/11/09 01:17:37;;;;;;;14.38;6.15;;;4.60;99.90;;;;;;4969818;28;20050;-76
2023/11/09 01:20:08;;;;;;;13.88;6.78;;;4.60;99.90;;;;;;4968848;28;20048;-76
2023/11/09 01:22:37;;;;;;;14.88;6.80;;;4.50;99.90;;;;;;5001937;28;20056;-76
2023/11/09 01:25:07;;;;;;;14.95;7.60;;;4.50;99.90;;;;;;4997132;28;20332;-76
2023/11/09 01:27:36;;;;;;;19.15;7.57;;;4.60;99.90;;;;;;4994039;28;22105;-76
2023/11/09 01:30:05;;;;;;;17.50;7.78;;;4.60;99.90;;;;;;4999330;28;20049;-76
2023/11/09 01:32:34;;;;;;;18.35;7.35;;;4.50;99.90;;;;;;4986926;28;20052;-76
2023/11/09 01:35:03;;;;;;;14.85;6.72;;;4.60;99.90;;;;;;4988545;28;20180;-76
2023/11/09 01:37:31;;;;;;;17.77;7.97;;;4.50;99.90;;;;;;5004788;28;20147;-76
2023/11/09 01:40:00;;;;;;;14.35;7.18;;;4.40;99.90;;;;;;4994624;28;20458;-76
2023/11/09 01:42:28;;;;;;;17.02;7.68;;;4.40;99.90;;;;;;4995521;28;20054;-76
2023/11/09 01:44:58;;;;;;;19.80;8.15;;;4.40;99.90;;;;;;4987845;28;20057;-76
2023/11/09 01:47:27;;;;;;;12.93;6.78;;;4.40;99.90;;;;;;4989138;28;20479;-76
2023/11/09 01:49:55;;;;;;;14.90;6.75;;;4.40;99.90;;;;;;4986181;28;20056;-76
2023/11/09 01:52:24;;;;;;;13.20;6.55;;;4.40;99.90;;;;;;5004873;28;20057;-76
2023/11/09 01:54:52;;;;;;;13.02;6.65;;;4.40;99.90;;;;;;4987974;28;20136;-76
2023/11/09 01:57:21;;;;;;;17.90;7.45;;;4.40;99.90;;;;;;5002992;28;20065;-76
2023/11/09 01:59:51;;;;;;;11.00;5.85;;;4.30;99.90;;;;;;4985574;28;20203;-76
2023/11/09 02:02:22;;;;;;;15.57;6.50;;;4.30;99.90;;;;;;4985145;28;20060;-76
2023/11/09 02:04:50;;;;;;;12.73;6.18;;;4.20;99.90;;;;;;4991349;28;20144;-76
2023/11/09 02:07:19;;;;;;;13.88;6.47;;;4.20;99.90;;;;;;4989286;28;20144;-75
2023/11/09 02:09:49;;;;;;;15.50;7.25;;;4.30;99.90;;;;;;5001694;28;20049;-76
2023/11/09 02:12:18;;;;;;;13.80;6.20;;;4.30;99.90;;;;;;4983360;28;20054;-76
2023/11/09 02:14:47;;;;;;;16.02;6.78;;;4.30;99.90;;;;;;4988641;28;20045;-76
2023/11/09 02:17:16;;;;;;;15.18;6.07;;;4.20;99.90;;;;;;4991066;28;20058;-76
2023/11/09 02:19:46;;;;;;;15.55;6.25;;;4.20;99.90;;;;;;4985571;28;20060;-76
2023/11/09 02:22:16;;;;;;;9.52;5.38;;;4.20;99.90;;;;;;5002010;28;20050;-76
2023/11/09 02:24:47;;;;;;;13.77;5.95;;;4.20;99.90;;;;;;4993826;28;20092;-75
2023/11/09 02:27:15;;;;;;;11.38;5.55;;;4.20;99.90;;;;;;4996478;28;22251;-76
2023/11/09 02:29:44;;;;;;;14.38;6.25;;;4.20;99.90;;;;;;5004648;28;20049;-76
2023/11/09 02:32:12;;;;;;;12.15;5.63;;;4.10;99.90;;;;;;4994414;28;20053;-76
2023/11/09 02:34:40;;;;;;;11.48;5.85;;;4.10;99.90;;;;;;5011154;28;20062;-76
2023/11/09 02:37:10;;;;;;;10.68;5.65;;;4.10;99.90;;;;;;4998679;28;20057;-76
2023/11/09 02:39:39;;;;;;;11.57;5.95;;;4.10;99.90;;;;;;5007992;28;20832;-76
2023/11/09 02:42:08;;;;;;;13.65;5.88;;;4.10;99.90;;;;;;5022212;28;20519;-76
2023/11/09 02:44:37;;;;;;;12.23;5.72;;;4.10;99.90;;;;;;4997280;28;20053;-76
2023/11/09 02:47:05;;;;;;;13.00;5.97;;;4.00;99.90;;;;;;4998708;28;20088;-76
2023/11/09 02:49:33;;;;;;;14.85;6.10;;;4.10;99.90;;;;;;5002049;28;20805;-76
2023/11/09 02:52:02;;;;;;;15.43;6.80;;;4.00;99.90;;;;;;5016829;28;20052;-76
2023/11/09 02:54:30;;;;;;;15.88;6.30;;;4.00;99.90;;;;;;4988895;28;22530;-76
2023/11/09 02:56:59;;;;;;;13.82;6.53;;;4.00;99.90;;;;;;5009404;28;20156;-75
2023/11/09 02:59:29;;;;;;;10.90;5.97;;;4.00;99.90;;;;;;5015727;28;20053;-76
2023/11/09 03:01:57;;;;;;;14.40;6.35;;;3.90;99.90;;;;;;5012426;28;20145;-76
2023/11/09 03:04:26;;;;;;;12.80;5.95;;;4.00;99.90;;;;;;5010829;28;21957;-76
2023/11/09 03:06:55;;;;;;;12.45;5.75;;;3.90;99.90;;;;;;4994828;28;20049;-76
2023/11/09 03:09:24;;;;;;;14.05;6.05;;;3.90;99.90;;;;;;4995130;28;20092;-75
2023/11/09 03:11:52;;;;;;;19.33;8.15;;;3.80;99.90;;;;;;5001200;28;20164;-76
2023/11/09 03:14:21;;;;;;;20.33;7.95;;;3.90;99.90;;;;;;5003780;28;20053;-76
2023/11/09 03:16:50;;;;;;;25.55;10.90;;;3.80;99.90;;;;;;5009330;28;20060;-77
2023/11/09 03:19:18;;;;;;;30.70;11.50;;;3.80;99.90;;;;;;5000769;28;20049;-76
2023/11/09 03:21:47;;;;;;;26.88;10.68;;;3.80;99.90;;;;;;5014227;28;20057;-77
2023/11/09 03:24:15;;;;;;;28.00;10.88;;;3.80;99.90;;;;;;5014658;28;20054;-75
2023/11/09 03:26:44;;;;;;;28.60;10.95;;;3.80;99.90;;;;;;5026082;28;22487;-77
2023/11/09 03:29:12;;;;;;;26.15;11.57;;;3.80;99.90;;;;;;5011042;28;21102;-77
2023/11/09 03:31:40;;;;;;;30.52;11.75;;;3.80;99.90;;;;;;5000808;28;20077;-76
2023/11/09 03:34:11;;;;;;;29.42;11.35;;;3.80;99.90;;;;;;5028628;28;20061;-76
2023/11/09 03:36:40;;;;;;;25.65;10.02;;;3.70;99.90;;;;;;4994683;28;20050;-76
2023/11/09 03:39:09;;;;;;;26.88;10.63;;;3.70;99.90;;;;;;5002938;28;20046;-76
2023/11/09 03:41:37;;;;;;;19.20;9.60;;;3.70;99.90;;;;;;5016996;28;20054;-76
2023/11/09 03:44:06;;;;;;;21.33;8.02;;;3.70;99.90;;;;;;5015308;28;20087;-76
2023/11/09 03:46:34;;;;;;;18.88;7.50;;;3.70;99.90;;;;;;5006437;28;20050;-75
2023/11/09 03:49:03;;;;;;;23.80;8.30;;;3.70;99.90;;;;;;4997022;28;20186;-76
2023/11/09 03:51:33;;;;;;;18.77;7.88;;;3.70;99.90;;;;;;5011904;28;20111;-77
2023/11/09 03:54:03;;;;;;;18.90;7.75;;;3.60;99.90;;;;;;4994363;28;20060;-76
2023/11/09 03:56:31;;;;;;;17.85;7.47;;;3.60;99.90;;;;;;5011823;28;20056;-76
2023/11/09 03:59:00;;;;;;;17.58;7.97;;;3.60;99.90;;;;;;4995475;28;20056;-76
2023/11/09 04:01:29;;;;;;;17.15;7.53;;;3.60;99.90;;;;;;4992094;28;20064;-75
2023/11/09 04:03:57;;;;;;;18.65;9.70;;;3.60;99.90;;;;;;4991584;28;20057;-76
2023/11/09 04:06:26;;;;;;;22.63;10.95;;;3.60;99.90;;;;;;5006669;28;20054;-76
2023/11/09 04:08:56;;;;;;;22.70;11.73;;;3.60;99.90;;;;;;4991023;28;20053;-76
2023/11/09 04:11:26;;;;;;;22.40;11.13;;;3.60;99.90;;;;;;5013792;28;20509;-76
2023/11/09 04:13:54;;;;;;;21.80;11.07;;;3.50;99.90;;;;;;5019276;28;20742;-76
2023/11/09 04:16:23;;;;;;;24.90;11.73;;;3.50;99.90;;;;;;5005738;28;20547;-75
2023/11/09 04:18:51;;;;;;;23.55;12.35;;;3.60;99.90;;;;;;5011395;28;20053;-76
2023/11/09 04:21:20;;;;;;;24.55;11.32;;;3.50;99.90;;;;;;5004759;28;20049;-75
2023/11/09 04:23:49;;;;;;;20.02;10.95;;;3.50;99.90;;;;;;4992857;28;20053;-76
2023/11/09 04:26:19;;;;;;;19.38;10.55;;;3.50;99.90;;;;;;4997757;28;20584;-76
2023/11/09 04:28:47;;;;;;;18.58;9.02;;;3.50;99.90;;;;;;4993492;28;20058;-76
2023/11/09 04:31:15;;;;;;;14.38;7.72;;;3.50;99.90;;;;;;5007553;28;20058;-76
2023/11/09 04:33:44;;;;;;;13.65;7.60;;;3.50;99.90;;;;;;4988727;28;20058;-75
2023/11/09 04:36:12;;;;;;;17.55;7.45;;;3.50;99.90;;;;;;5007849;28;20041;-76
2023/11/09 04:38:40;;;;;;;15.93;7.13;;;3.50;99.90;;;;;;4999938;28;22695;-76
2023/11/09 04:41:12;;;;;;;13.73;7.65;;;3.50;99.90;;;;;;4992756;28;20041;-75
2023/11/09 04:43:43;;;;;;;16.35;8.25;;;3.50;99.90;;;;;;4988756;28;20057;-76
2023/11/09 04:46:15;;;;;;;16.33;7.53;;;3.40;99.90;;;;;;4987622;28;20564;-75
2023/11/09 04:48:46;;;;;;;13.57;8.37;;;3.50;99.90;;;;;;4992753;28;20701;-75
2023/11/09 04:51:22;;;;;;;17.85;7.65;;;3.50;99.90;;;;;;5009128;28;20930;-76
2023/11/09 04:53:52;;;;;;;16.98;7.85;;;3.40;99.90;;;;;;4991823;28;20052;-76
2023/11/09 04:56:32;;;;;;;14.15;6.72;;;3.40;99.90;;;;;;4991055;28;20053;-75
2023/11/09 05:06:48;;;;;;;16.25;7.45;;;3.30;99.90;;;;;;5001153;28;20636;-76
2023/11/09 05:07:24;;;;;;;15.85;7.15;;;3.30;99.90;;;;;;4991499;28;20061;-75
2023/11/09 05:09:53;;;;;;;13.57;6.55;;;3.30;99.90;;;;;;4995245;28;20046;-76
2023/11/09 05:12:21;;;;;;;16.30;7.05;;;3.40;99.90;;;;;;4994123;28;20057;-75
2023/11/09 05:14:51;;;;;;;15.98;7.72;;;3.30;99.90;;;;;;4989440;28;20045;-75
2023/11/09 05:17:20;;;;;;;17.58;8.80;;;3.30;99.90;;;;;;4994917;28;20049;-74
2023/11/09 05:19:50;;;;;;;18.70;9.38;;;3.30;99.90;;;;;;5003611;28;20100;-73
2023/11/09 05:22:19;;;;;;;18.38;9.77;;;3.30;99.90;;;;;;4987885;28;20049;-74
2023/11/09 05:24:48;;;;;;;19.38;9.07;;;3.30;99.90;;;;;;4985122;28;21024;-74
2023/11/09 05:27:17;;;;;;;18.85;9.30;;;3.30;99.90;;;;;;4987450;28;20517;-73
2023/11/09 05:29:46;;;;;;;20.05;9.23;;;3.30;99.90;;;;;;4985033;28;20184;-72
2023/11/09 05:32:16;;;;;;;18.15;8.75;;;3.30;99.90;;;;;;4986517;28;20123;-73
2023/11/09 05:34:44;;;;;;;16.25;8.15;;;3.30;99.90;;;;;;4988086;28;20104;-73
2023/11/09 05:37:13;;;;;;;22.27;8.77;;;3.20;99.90;;;;;;4993696;28;20508;-73
2023/11/09 05:39:43;;;;;;;16.63;8.50;;;3.30;99.90;;;;;;4987437;28;20049;-73
2023/11/09 05:42:11;;;;;;;16.58;8.10;;;3.30;99.90;;;;;;4985295;28;20172;-73
2023/11/09 05:44:39;;;;;;;17.67;7.90;;;3.10;99.90;;;;;;4987757;28;20053;-73
2023/11/09 05:47:08;;;;;;;20.70;9.80;;;3.20;99.90;;;;;;4982294;28;20064;-74
2023/11/09 05:49:38;;;;;;;50.03;17.98;;;3.30;99.90;;;;;;4986387;28;20054;-74
2023/11/09 05:52:09;;;;;;;38.10;14.40;;;3.30;99.90;;;;;;5010523;28;20507;-73
2023/11/09 05:54:38;;;;;;;34.60;14.90;;;3.30;99.90;;;;;;4989470;28;20785;-74
2023/11/09 05:57:06;;;;;;;35.63;15.90;;;3.30;99.90;;;;;;5001998;28;20065;-74
2023/11/09 05:59:35;;;;;;;33.92;15.70;;;3.30;99.90;;;;;;4990713;28;20225;-73
2023/11/09 06:02:04;;;;;;;34.53;16.35;;;3.30;99.90;;;;;;5005189;28;20527;-73
2023/11/09 06:04:33;;;;;;;32.75;14.45;;;3.40;99.90;;;;;;5006093;28;20053;-74
2023/11/09 06:07:03;;;;;;;36.10;14.80;;;3.40;99.90;;;;;;4989035;28;20053;-73
2023/11/09 06:09:31;;;;;;;22.75;11.27;;;3.40;99.90;;;;;;4988606;28;20049;-73
2023/11/09 06:12:00;;;;;;;18.77;8.15;;;3.40;99.90;;;;;;4991376;28;20081;-75
2023/11/09 06:14:29;;;;;;;14.85;7.47;;;3.50;99.90;;;;;;4995133;28;20052;-74
2023/11/09 06:16:57;;;;;;;14.68;6.57;;;3.50;99.90;;;;;;5006456;28;20107;-74
2023/11/09 06:19:26;;;;;;;57.90;20.05;;;3.60;99.90;;;;;;5022437;28;20069;-74
2023/11/09 06:21:56;;;;;;;72.88;24.45;;;3.60;99.90;;;;;;5007759;28;20065;-75
2023/11/09 06:24:26;;;;;;;204.23;48.97;;;3.70;99.90;;;;;;5004931;28;20202;-74
2023/11/09 06:26:55;;;;;;;224.40;53.42;;;3.70;99.90;;;;;;4994962;28;20057;-76
2023/11/09 06:29:24;;;;;;;225.65;57.85;;;3.70;99.90;;;;;;5011633;28;20061;-76
2023/11/09 06:31:52;;;;;;;284.85;70.15;;;3.80;99.90;;;;;;4993092;28;20065;-76
2023/11/09 06:34:21;;;;;;;232.05;63.08;;;3.80;99.90;;;;;;5003193;28;20898;-76
2023/11/09 06:36:49;;;;;;;166.30;50.95;;;3.90;99.90;;;;;;5003986;28;20072;-77
2023/11/09 06:39:19;;;;;;;93.57;38.25;;;4.00;99.90;;;;;;5013551;28;22425;-76
2023/11/09 06:41:48;;;;;;;113.25;44.17;;;4.10;99.90;;;;;;5003518;28;20048;-77
2023/11/09 06:44:17;;;;;;;67.22;32.70;;;4.10;99.90;;;;;;4995454;28;20084;-77
2023/11/09 06:46:46;;;;;;;58.85;27.85;;;4.20;99.90;;;;;;4996410;28;20053;-77
2023/11/09 06:49:14;;;;;;;43.13;20.65;;;4.30;99.90;;;;;;4998194;28;20050;-76
2023/11/09 06:51:42;;;;;;;35.67;17.58;;;4.30;99.90;;;;;;4993363;28;20057;-75
2023/11/09 06:54:11;;;;;;;21.90;11.00;;;4.40;99.90;;;;;;4987449;28;20520;-76
2023/11/09 06:56:39;;;;;;;24.27;10.52;;;4.50;99.90;;;;;;4970229;28;20466;-76
2023/11/09 06:59:09;;;;;;;16.90;8.43;;;4.50;99.90;;;;;;4973443;28;20203;-76
2023/11/09 07:01:37;;;;;;;13.20;6.68;;;4.60;99.90;;;;;;4969660;28;20049;-75
2023/11/09 07:04:07;;;;;;;22.00;9.50;;;4.70;99.90;;;;;;4972014;28;20191;-76
2023/11/09 07:06:36;;;;;;;19.35;8.13;;;4.70;99.90;;;;;;5012586;28;20088;-76
2023/11/09 07:09:04;;;;;;;18.63;8.57;;;4.80;99.90;;;;;;4992463;28;20057;-76
2023/11/09 07:11:33;;;;;;;17.30;7.18;;;4.90;99.90;;;;;;4991113;28;20492;-75
2023/11/09 07:14:06;;;;;;;15.88;8.13;;;4.90;99.90;;;;;;4972207;28;20049;-76
2023/11/09 07:16:37;;;;;;;16.10;7.82;;;4.90;99.90;;;;;;4985029;28;20096;-76
2023/11/09 07:19:05;;;;;;;16.52;7.45;;;5.00;99.90;;;;;;4972730;28;20056;-76
2023/11/09 07:21:33;;;;;;;14.77;7.75;;;5.10;99.90;;;;;;5001298;28;20045;-75
2023/11/09 07:24:04;;;;;;;20.38;8.48;;;5.10;99.90;;;;;;4988350;28;20058;-76
2023/11/09 07:26:33;;;;;;;17.80;7.82;;;5.20;99.90;;;;;;4978030;28;20053;-76
2023/11/09 07:29:02;;;;;;;18.02;9.02;;;5.30;99.90;;;;;;4976499;28;22249;-75
2023/11/09 07:31:30;;;;;;;19.65;10.43;;;5.40;99.90;;;;;;4970170;28;20046;-76
2023/11/09 07:34:00;;;;;;;16.70;8.55;;;5.50;99.90;;;;;;4973229;28;22618;-76
2023/11/09 07:36:28;;;;;;;15.82;7.13;;;5.50;99.90;;;;;;4976897;28;20058;-77
2023/11/09 07:38:57;;;;;;;13.50;6.22;;;5.60;99.90;;;;;;4984052;28;20046;-76
2023/11/09 07:41:29;;;;;;;15.60;7.50;;;5.70;99.90;;;;;;4999947;28;20057;-76
2023/11/09 07:43:58;;;;;;;13.40;5.32;;;5.70;99.90;;;;;;5000198;28;20176;-77
2023/11/09 07:46:28;;;;;;;11.95;4.85;;;5.80;99.90;;;;;;5004396;28;20111;-76
2023/11/09 07:48:59;;;;;;;9.77;5.10;;;5.90;99.90;;;;;;4988227;28;20046;-77
2023/11/09 07:51:30;;;;;;;8.38;4.57;;;7.10;99.90;;;;;;5000888;28;20052;-77
2023/11/09 07:53:59;;;;;;;11.32;5.05;;;6.00;99.90;;;;;;5013040;28;20038;-77
2023/11/09 07:56:28;;;;;;;9.07;4.22;;;6.30;99.90;;;;;;5017014;28;20037;-76
2023/11/09 07:58:57;;;;;;;9.93;4.70;;;6.40;99.90;;;;;;5012778;28;20053;-77
2023/11/09 08:01:26;;;;;;;9.10;4.88;;;6.10;99.90;;;;;;5001606;28;20029;-77
2023/11/09 08:03:55;;;;;;;11.85;4.75;;;6.40;99.90;;;;;;5003276;28;20431;-77
2023/11/09 08:06:24;;;;;;;10.15;4.47;;;6.90;99.90;;;;;;5017144;28;20067;-77
2023/11/09 08:08:54;;;;;;;11.80;4.70;;;6.40;99.90;;;;;;5011050;28;20038;-77
2023/11/09 08:11:23;;;;;;;8.63;4.63;;;8.00;99.90;;;;;;5012818;28;20041;-77
2023/11/09 08:13:51;;;;;;;10.50;4.70;;;6.70;99.90;;;;;;5005012;28;20095;-77
2023/11/09 08:16:20;;;;;;;9.90;5.10;;;6.80;99.90;;;;;;5002543;28;20033;-76
2023/11/09 08:18:48;;;;;;;11.20;4.85;;;6.90;99.90;;;;;;5002846;28;20045;-76
2023/11/09 08:21:17;;;;;;;11.60;4.82;;;7.00;99.90;;;;;;4999735;28;20046;-77
2023/11/09 08:23:45;;;;;;;8.55;3.70;;;7.10;99.90;;;;;;5016017;28;20060;-76
2023/11/09 08:26:15;;;;;;;12.48;4.00;;;5.90;99.90;;;;;;5014052;28;20041;-77
2023/11/09 08:28:44;;;;;;;11.07;4.35;;;7.60;99.90;;;;;;5006094;28;20278;-77
2023/11/09 08:31:13;;;;;;;8.43;4.43;;;7.50;99.90;;;;;;5002155;28;20041;-77
2023/11/09 08:33:42;;;;;;;7.85;4.13;;;8.20;99.90;;;;;;5018799;28;20049;-77
2023/11/09 08:36:11;;;;;;;7.43;3.65;;;7.60;99.90;;;;;;5000152;28;20049;-75
2023/11/09 08:38:40;;;;;;;6.28;3.78;;;7.80;99.90;;;;;;5008693;28;20107;-77
2023/11/09 08:41:08;;;;;;;6.70;3.05;;;7.90;99.90;;;;;;4993615;28;20045;-77
2023/11/09 08:43:40;;;;;;;6.82;3.00;;;8.00;99.90;;;;;;4994818;28;20053;-77
2023/11/09 08:46:09;;;;;;;7.00;3.10;;;8.10;99.90;;;;;;4996117;28;20076;-75
2023/11/09 08:48:40;;;;;;;7.28;3.30;;;8.20;99.90;;;;;;4978004;28;20059;-75
2023/11/09 08:51:13;;;;;;;7.50;2.95;;;8.30;99.90;;;;;;4974194;28;20088;-75
2023/11/09 08:53:43;;;;;;;5.50;2.70;;;8.40;99.90;;;;;;4977959;28;20192;-75
2023/11/09 08:56:14;;;;;;;5.85;3.03;;;8.50;99.90;;;;;;4986128;28;20102;-76
2023/11/09 08:58:45;;;;;;;5.72;2.95;;;8.60;99.90;;;;;;4996123;28;20049;-75
2023/11/09 09:01:17;;;;;;;4.82;2.15;;;8.70;99.90;;;;;;4981834;28;20100;-75
2023/11/09 09:03:49;;;;;;;;;;;8.80;99.90;;;;;;4978628;28;20056;-76
2023/11/09 09:06:19;;;;;;;5.55;1.30;;;8.90;99.90;;;;;;4977529;28;19935;-76
2023/11/09 09:08:47;;;;;;;5.45;1.85;;;9.10;99.90;;;;;;4993966;28;20556;-75
2023/11/09 09:11:17;;;;;;;4.53;1.75;;;9.20;99.90;;;;;;4973298;28;20266;-76
2023/11/09 09:13:47;;;;;;;4.97;1.60;;;9.20;99.90;;;;;;4975951;28;20053;-75
2023/11/09 09:16:16;;;;;;;3.95;2.03;;;9.40;99.90;;;;;;4970842;28;20045;-75
2023/11/09 09:18:46;;;;;;;4.72;1.17;;;9.50;99.90;;;;;;4999266;28;20057;-76
2023/11/09 09:21:34;;;;;;;5.28;1.65;;;9.60;99.90;;;;;;4944904;28;20076;-76
2023/11/09 09:24:04;;;;;;;3.67;1.45;;;9.70;99.90;;;;;;4951674;28;20050;-75
2023/11/09 09:26:33;;;;;;;5.25;2.15;;;9.80;99.90;;;;;;4947644;28;20712;-75
2023/11/09 09:29:03;;;;;;;4.97;1.23;;;9.90;99.90;;;;;;4948401;28;20211;-75
2023/11/09 09:31:35;;;;;;;3.38;1.65;;;10.00;99.90;;;;;;4956567;28;20054;-75
2023/11/09 09:34:07;;;;;;;2.72;1.30;;;10.10;99.90;;;;;;4962302;28;20053;-75
2023/11/09 09:36:38;;;;;;;3.10;1.13;;;10.20;99.90;;;;;;4948042;28;22230;-75
2023/11/09 09:39:08;;;;;;;1.33;0.73;;;10.20;99.90;;;;;;4958332;28;20053;-75
2023/11/09 09:41:42;;;;;;;3.22;1.00;;;10.30;99.90;;;;;;4983493;28;20081;-76
2023/11/09 09:44:13;;;;;;;3.13;1.20;;;10.30;99.90;;;;;;5003712;28;20097;-74
2023/11/09 09:46:42;;;;;;;4.25;1.17;;;10.30;99.90;;;;;;4991073;28;20049;-76
2023/11/09 09:49:14;;;;;;;4.75;1.77;;;10.40;99.90;;;;;;5000914;28;20048;-75
2023/11/09 09:51:44;;;;;;;3.65;0.80;;;10.50;99.90;;;;;;4979969;28;20046;-73
2023/11/09 09:54:14;;;;;;;1.88;0.63;;;10.60;99.90;;;;;;4990191;28;20111;-74
2023/11/09 09:56:47;;;;;;;2.38;0.80;;;10.70;99.30;;;;;;4976094;28;20049;-75
2023/11/09 09:59:18;;;;;;;2.55;0.80;;;10.70;99.50;;;;;;4997141;28;20053;-76
2023/11/09 10:01:50;;;;;;;2.08;0.45;;;10.80;98.60;;;;;;4979414;28;20080;-75
2023/11/09 10:04:20;;;;;;;1.73;0.40;;;10.90;97.60;;;;;;4978907;28;20050;-77
2023/11/09 10:06:48;;;;;;;8.43;2.45;;;11.00;97.40;;;;;;4982211;28;20068;-75
2023/11/09 10:09:17;;;;;;;2.63;0.52;;;11.00;97.80;;;;;;4996560;28;20069;-74
2023/11/09 10:11:50;;;;;;;0.82;0.30;;;11.10;98.00;;;;;;4995867;28;20488;-76
2023/11/09 10:14:23;;;;;;;4.22;0.82;;;11.10;98.00;;;;;;4987705;28;20061;-75
2023/11/09 10:16:51;;;;;;;4.15;0.50;;;11.20;97.40;;;;;;5002388;28;20463;-75
2023/11/09 10:19:21;;;;;;;2.25;0.50;;;11.20;98.00;;;;;;4986775;28;20053;-74
2023/11/09 10:21:51;;;;;;;2.67;0.50;;;11.20;97.30;;;;;;4995988;28;20554;-77
2023/11/09 10:24:23;;;;;;;4.65;0.22;;;11.30;97.40;;;;;;4992239;28;20779;-76
2023/11/09 10:26:52;;;;;;;4.85;0.70;;;11.30;96.90;;;;;;4982296;28;20195;-74
2023/11/09 10:29:25;;;;;;;3.30;0.50;;;11.40;96.90;;;;;;4985992;28;20053;-76
2023/11/09 10:31:54;;;;;;;1.80;0.40;;;11.50;96.70;;;;;;4988105;28;20054;-74
2023/11/09 10:34:26;;;;;;;2.58;0.70;;;11.40;96.00;;;;;;5007556;28;20061;-75
2023/11/09 10:36:57;;;;;;;2.28;0.35;;;11.40;95.30;;;;;;5002643;28;20065;-76
2023/11/09 10:39:29;;;;;;;1.33;0.32;;;11.50;95.80;;;;;;4986454;28;20049;-76
2023/11/09 10:42:04;;;;;;;1.90;0.30;;;11.60;95.10;;;;;;4988531;28;20060;-74
2023/11/09 10:44:38;;;;;;;1.13;0.20;;;11.60;94.20;;;;;;4997910;28;20053;-75
2023/11/09 10:47:13;;;;;;;0.57;0.20;;;11.70;94.40;;;;;;4982501;28;20703;-75
2023/11/09 10:49:44;;;;;;;2.80;0.55;;;11.70;94.50;;;;;;5009336;28;20413;-75
2023/11/09 10:52:15;;;;;;;1.67;0.20;;;11.80;94.30;;;;;;4982242;28;20573;-75
2023/11/09 10:54:46;;;;;;;1.55;0.32;;;11.80;94.00;;;;;;4986707;28;20068;-76
2023/11/09 10:57:19;;;;;;;2.15;0.22;;;11.90;93.60;;;;;;4987766;28;20115;-76
2023/11/09 11:00:25;;;;;;;0.95;0.20;;;12.00;93.10;;;;;;4928723;28;20054;-75
2023/11/09 11:03:01;;;;;;;1.05;0.17;;;12.00;93.00;;;;;;4933719;28;22105;-75
2023/11/09 11:05:33;;;;;;;1.65;0.47;;;12.80;93.00;;;;;;4932489;28;20061;-75
2023/11/09 11:08:07;;;;;;;1.90;0.30;;;12.10;93.30;;;;;;4928462;28;20065;-77
2023/11/09 11:10:42;;;;;;;0.73;0.20;;;12.20;93.40;;;;;;4949348;28;20787;-77
2023/11/09 11:13:16;;;;;;;0.60;0.10;;;12.20;92.40;;;;;;4960659;28;20051;-77
2023/11/09 11:16:20;;;;;;;2.03;0.10;;;12.20;91.60;;;;;;4961975;28;22190;-76
2023/11/09 11:19:13;;;;;;;1.23;0.10;;;12.30;91.50;;;;;;4987569;28;20095;-75
2023/11/09 11:21:57;;;;;;;1.13;0.25;;;12.20;91.90;;;;;;4998085;28;20648;-77
2023/11/09 11:24:58;;;;;;;2.03;0.10;;;12.30;91.80;;;;;;5006139;28;20131;-76
2023/11/09 11:27:44;;;;;;;1.98;0.20;;;12.40;91.30;;;;;;4989618;28;20586;-78
2023/11/09 11:30:24;;;;;;;1.25;0.40;;;12.40;90.40;;;;;;5005715;28;20408;-76
2023/11/09 11:32:57;;;;;;;1.88;0.20;;;12.30;90.90;;;;;;4985983;28;20049;-77
2023/11/09 11:35:38;;;;;;;5.13;0.22;;;12.40;90.70;;;;;;4999294;28;20054;-77
2023/11/09 11:38:22;;;;;;;1.88;0.40;;;12.50;90.40;;;;;;4981361;28;20621;-75
2023/11/09 11:40:54;;;;;;;0.65;0.10;;;12.40;90.40;;;;;;4989434;28;20067;-76
2023/11/09 11:43:22;;;;;;;1.40;0.10;;;12.50;90.10;;;;;;4984650;28;20500;-77
2023/11/09 11:45:53;;;;;;;0.40;0.10;;;12.50;89.90;;;;;;4985166;28;20808;-75
2023/11/09 11:48:31;;;;;;;1.95;0.17;;;12.50;90.20;;;;;;4989884;28;22244;-75
2023/11/09 11:51:06;;;;;;;1.88;0.10;;;12.50;89.20;;;;;;4997090;28;20054;-78
2023/11/09 11:53:36;;;;;;;1.25;0.17;;;12.60;89.20;;;;;;5003170;28;20058;-75
2023/11/09 11:56:10;;;;;;;1.95;0.20;;;12.60;89.80;;;;;;5003279;28;20150;-77
2023/11/09 11:58:52;;;;;;;0.47;0.10;;;12.60;88.60;;;;;;4985929;28;20053;-75
2023/11/09 12:01:22;;;;;;;2.22;0.55;;;12.70;88.00;;;;;;4985505;28;20090;-76
2023/11/09 12:04:08;;;;;;;1.55;0.50;;;12.60;89.00;;;;;;4987590;28;22143;-76
2023/11/09 12:06:38;;;;;;;3.22;0.28;;;12.60;89.40;;;;;;4999978;28;20058;-76
2023/11/09 12:09:09;;;;;;;1.88;0.68;;;12.70;88.90;;;;;;5002314;28;20058;-76
2023/11/09 12:11:43;;;;;;;2.15;1.00;;;12.60;90.00;;;;;;5000896;28;20061;-77
2023/11/09 12:14:12;;;;;;;;;;;12.70;90.00;;;;;;4986082;28;20703;-77
2023/11/09 12:16:43;;;;;;;2.63;1.58;;;12.70;89.80;;;;;;4999605;28;19924;-77
2023/11/09 12:19:14;;;;;;;2.72;0.30;;;12.70;89.40;;;;;;4991165;28;20619;-78
2023/11/09 12:21:46;;;;;;;2.38;0.10;;;12.70;88.90;;;;;;4991763;28;20056;-78
2023/11/09 12:24:21;;;;;;;0.68;0.20;;;12.70;87.70;;;;;;5019205;28;20046;-80
2023/11/09 12:27:05;;;;;;;0.98;0.20;;;12.60;88.20;;;;;;4990690;28;20069;-74
2023/11/09 12:29:37;;;;;;;0.65;0.10;;;12.70;87.30;;;;;;5012223;28;20053;-75
2023/11/09 12:32:08;;;;;;;4.53;1.45;;;12.60;87.00;;;;;;5001277;28;20113;-78
2023/11/09 12:34:40;;;;;;;1.38;0.45;;;12.70;87.00;;;;;;4992853;28;20045;-77
2023/11/09 12:37:13;;;;;;;2.17;0.82;;;12.70;87.50;;;;;;4996128;28;20054;-79
2023/11/09 12:39:43;;;;;;;1.42;0.38;;;12.80;88.80;;;;;;4991253;28;20532;-78
2023/11/09 12:42:25;;;;;;;0.70;0.10;;;12.70;87.30;;;;;;5004214;28;20053;-75
2023/11/09 12:44:56;;;;;;;0.60;0.15;;;12.70;86.70;;;;;;4986253;28;20077;-75
2023/11/09 12:47:25;;;;;;;1.67;0.20;;;12.70;86.40;;;;;;5006495;28;20041;-78
2023/11/09 12:50:03;;;;;;;1.75;0.10;;;12.70;85.50;;;;;;5042212;28;20061;-78
2023/11/09 12:52:34;;;;;;;0.32;0.05;;;12.70;85.50;;;;;;4997587;28;20092;-77
2023/11/09 12:55:06;;;;;;;0.77;0.10;;;12.70;85.50;;;;;;5006124;28;20061;-76
2023/11/09 12:57:40;;;;;;;0.85;0.10;;;12.70;86.60;;;;;;4992919;28;20536;-79
2023/11/09 13:00:29;;;;;;;0.30;0.10;;;12.70;86.20;;;;;;5004446;28;20166;-76
2023/11/09 13:03:02;;;;;;;0.47;0.10;;;12.70;84.80;;;;;;4988754;28;20061;-77
2023/11/09 13:05:38;;;;;;;0.52;0.10;;;12.70;84.60;;;;;;5002151;28;20122;-79
2023/11/09 13:08:09;;;;;;;1.00;0.20;;;12.80;86.70;;;;;;5017007;28;20049;-77